Time;durP1;ratioP1;P1;durP2;ratioP2;P2;SDS_P1;SDS_P2;PMS_P1;PMS_P2;Temp;Humidity;BMP_temperature;BMP_pressure;BME280_temperature;BME280_humidity;BME280_pressure;Samples;Min_cycle;Max_cycle;Signal;HPM_P1;HPM_P2
2021/01/08 00:01:39;;;;;;;20.73;9.37;;;1.10;55.40;;;;;;6213281;23;20567;-82
2021/01/08 00:04:05;;;;;;;17.37;9.57;;;1.00;55.30;;;;;;6187108;23;20243;-82
2021/01/08 00:06:30;;;;;;;13.57;8.37;;;1.10;55.80;;;;;;6187795;23;20565;-82
2021/01/08 00:08:56;;;;;;;21.83;8.40;;;1.10;55.60;;;;;;6188982;23;20011;-82
2021/01/08 00:11:24;;;;;;;19.87;8.93;;;1.10;55.60;;;;;;6189221;23;20332;-82
2021/01/08 00:13:50;;;;;;;16.37;8.43;;;1.00;55.30;;;;;;6215575;23;20050;-82
2021/01/08 00:16:16;;;;;;;17.80;8.97;;;1.00;55.30;;;;;;6188566;23;20243;-82
2021/01/08 00:18:43;;;;;;;19.40;9.13;;;0.90;55.40;;;;;;6187672;23;20227;-82
2021/01/08 00:21:09;;;;;;;17.63;8.77;;;0.90;55.40;;;;;;6187826;23;20698;-82
2021/01/08 00:23:35;;;;;;;20.43;9.23;;;1.00;55.60;;;;;;6188347;23;20343;-82
2021/01/08 00:26:00;;;;;;;21.37;9.43;;;1.10;55.70;;;;;;6188168;23;20778;-82
2021/01/08 00:28:26;;;;;;;18.47;8.60;;;1.20;55.80;;;;;;6214689;23;20001;-82
2021/01/08 00:30:52;;;;;;;21.80;8.50;;;1.40;55.90;;;;;;6189137;23;20340;-81
2021/01/08 00:33:18;;;;;;;21.23;9.07;;;1.40;55.40;;;;;;6188327;23;20012;-81
2021/01/08 00:35:43;;;;;;;17.40;8.57;;;1.30;55.20;;;;;;6188776;23;20000;-81
2021/01/08 00:38:09;;;;;;;17.67;8.50;;;1.20;55.10;;;;;;6215257;23;20028;-81
2021/01/08 00:40:35;;;;;;;17.73;8.37;;;1.10;55.10;;;;;;6188680;23;20016;-81
2021/01/08 00:43:01;;;;;;;15.07;8.13;;;1.00;55.50;;;;;;6173187;23;20027;-81
2021/01/08 00:45:27;;;;;;;18.00;8.90;;;1.00;55.50;;;;;;6184884;23;20303;-81
2021/01/08 00:47:52;;;;;;;14.30;7.20;;;1.10;55.40;;;;;;6159013;23;20005;-81
2021/01/08 00:50:19;;;;;;;17.77;8.47;;;1.20;56.20;;;;;;6158622;23;20008;-81
2021/01/08 00:52:45;;;;;;;15.30;8.77;;;1.50;56.30;;;;;;6159513;23;20004;-81
2021/01/08 00:55:11;;;;;;;17.27;8.37;;;1.70;55.90;;;;;;6158498;23;20009;-82
2021/01/08 00:57:37;;;;;;;21.43;9.50;;;1.60;55.20;;;;;;6159023;23;20069;-82
2021/01/08 01:00:05;;;;;;;19.97;9.23;;;1.50;55.20;;;;;;6159928;23;20264;-83
2021/01/08 01:02:33;;;;;;;19.97;9.50;;;1.50;55.30;;;;;;6158899;23;20032;-83
2021/01/08 01:04:59;;;;;;;19.50;10.90;;;1.40;55.00;;;;;;6160735;23;20228;-83
2021/01/08 01:07:24;;;;;;;18.63;9.00;;;1.40;55.10;;;;;;6160335;23;20088;-83
2021/01/08 01:09:50;;;;;;;18.20;8.63;;;1.20;54.80;;;;;;6160200;23;20001;-82
2021/01/08 01:12:16;;;;;;;18.80;9.10;;;1.10;55.30;;;;;;6159831;23;20009;-82
2021/01/08 01:14:43;;;;;;;25.47;9.20;;;1.00;55.40;;;;;;6185799;23;20005;-82
2021/01/08 01:17:09;;;;;;;13.77;8.10;;;1.00;55.50;;;;;;6161923;23;20054;-82
2021/01/08 01:19:35;;;;;;;19.93;8.07;;;1.00;55.80;;;;;;6160216;23;20236;-82
2021/01/08 01:22:00;;;;;;;14.33;7.70;;;1.00;55.80;;;;;;6161360;23;20008;-82
2021/01/08 01:24:26;;;;;;;13.40;8.17;;;1.10;56.60;;;;;;6159937;23;20083;-82
2021/01/08 01:27:00;;;;;;;13.43;8.67;;;1.20;55.80;;;;;;6160385;23;20483;-82
2021/01/08 01:29:26;;;;;;;19.60;8.97;;;1.30;56.20;;;;;;6159804;23;20009;-82
2021/01/08 01:31:52;;;;;;;17.37;8.30;;;1.30;55.70;;;;;;6159297;23;20268;-82
2021/01/08 01:34:19;;;;;;;18.53;8.70;;;1.30;55.60;;;;;;6159687;23;20456;-82
2021/01/08 01:36:46;;;;;;;17.47;8.70;;;1.20;55.80;;;;;;6187535;23;20490;-82
2021/01/08 01:39:13;;;;;;;18.77;9.20;;;1.20;55.70;;;;;;6160278;23;20237;-82
2021/01/08 01:41:43;;;;;;;19.17;8.60;;;1.20;55.60;;;;;;6160893;23;20279;-82
2021/01/08 01:44:09;;;;;;;18.37;9.40;;;1.10;55.40;;;;;;6160644;23;20257;-82
2021/01/08 01:46:35;;;;;;;19.33;8.80;;;1.10;55.70;;;;;;6186608;23;20236;-82
2021/01/08 01:49:01;;;;;;;13.20;7.23;;;1.20;55.60;;;;;;6160554;23;20739;-82
2021/01/08 01:51:27;;;;;;;16.60;8.10;;;1.20;55.40;;;;;;6160119;23;20240;-82
2021/01/08 01:53:53;;;;;;;18.43;8.83;;;1.20;55.40;;;;;;6158794;23;20028;-82
2021/01/08 01:56:19;;;;;;;15.40;8.73;;;1.20;55.30;;;;;;6155984;23;20283;-81
2021/01/08 01:58:45;;;;;;;17.40;7.93;;;1.10;54.60;;;;;;6161341;23;20252;-82
2021/01/08 02:01:10;;;;;;;12.97;7.23;;;1.00;54.70;;;;;;6160323;23;20058;-82
2021/01/08 02:04:06;;;;;;;17.20;8.70;;;1.00;54.90;;;;;;6185821;23;19997;-82
2021/01/08 02:06:38;;;;;;;16.30;8.90;;;1.20;55.30;;;;;;6161433;23;20005;-82
2021/01/08 02:09:12;;;;;;;12.95;7.43;;;1.20;54.70;;;;;;6159758;23;20240;-82
2021/01/08 02:11:42;;;;;;;13.33;8.33;;;1.30;54.90;;;;;;6160321;23;20428;-82
2021/01/08 02:14:14;;;;;;;13.80;8.37;;;1.20;54.50;;;;;;6185978;23;20287;-82
2021/01/08 02:16:43;;;;;;;18.17;8.98;;;1.10;54.20;;;;;;6159546;23;20232;-82
2021/01/08 02:19:16;;;;;;;16.67;8.73;;;1.00;54.10;;;;;;6185456;23;20015;-82
2021/01/08 02:22:04;;;;;;;;;;;1.00;54.60;;;;;;6189981;23;20248;-81
2021/01/08 02:24:38;;;;;;;16.20;7.23;;;1.10;54.60;;;;;;6165959;23;19907;-81
2021/01/08 02:27:04;;;;;;;17.27;8.03;;;1.10;54.20;;;;;;6160641;23;20306;-81
2021/01/08 02:29:30;;;;;;;17.77;8.20;;;1.20;54.70;;;;;;6160534;23;20236;-81
2021/01/08 02:31:57;;;;;;;13.43;7.97;;;1.20;54.20;;;;;;6186940;23;20012;-81
2021/01/08 02:34:23;;;;;;;18.20;9.10;;;1.10;54.10;;;;;;6159813;23;20244;-81
2021/01/08 02:36:50;;;;;;;15.33;8.13;;;1.00;54.10;;;;;;6161722;23;20239;-82
2021/01/08 02:39:16;;;;;;;15.40;7.70;;;0.90;54.20;;;;;;6160756;23;20275;-82
2021/01/08 02:41:45;;;;;;;15.33;7.83;;;0.80;54.30;;;;;;6161927;23;20264;-82
2021/01/08 02:44:18;;;;;;;18.17;8.13;;;0.80;54.30;;;;;;6160550;23;20255;-81
2021/01/08 02:46:44;;;;;;;16.20;8.18;;;0.80;54.60;;;;;;6187634;23;20315;-81
2021/01/08 02:49:10;;;;;;;17.13;8.13;;;0.80;54.20;;;;;;6160594;23;20080;-81
2021/01/08 02:51:36;;;;;;;15.00;7.70;;;0.80;54.40;;;;;;6158385;23;20271;-82
2021/01/08 02:54:03;;;;;;;15.07;7.37;;;0.80;54.30;;;;;;6160117;23;20013;-81
2021/01/08 02:56:38;;;;;;;15.17;7.60;;;0.80;54.30;;;;;;6160952;23;20009;-82
2021/01/08 02:59:05;;;;;;;14.97;8.03;;;0.90;55.00;;;;;;6187013;23;20275;-82
2021/01/08 03:01:32;;;;;;;15.90;6.07;;;1.00;54.40;;;;;;6159954;23;20307;-82
2021/01/08 03:03:59;;;;;;;15.27;8.10;;;1.20;54.80;;;;;;6186579;23;20327;-82
2021/01/08 03:06:28;;;;;;;16.37;7.80;;;1.30;54.40;;;;;;6160283;23;20591;-82
2021/01/08 03:08:54;;;;;;;13.90;6.83;;;1.20;53.70;;;;;;6159671;23;20264;-82
2021/01/08 03:11:20;;;;;;;19.40;7.60;;;1.10;54.30;;;;;;6159662;23;20663;-82
2021/01/08 03:13:46;;;;;;;12.10;7.40;;;1.30;54.20;;;;;;6159577;23;20012;-82
2021/01/08 03:16:13;;;;;;;12.93;7.07;;;1.10;53.50;;;;;;6159877;23;20344;-82
2021/01/08 03:18:39;;;;;;;18.57;7.17;;;1.00;53.60;;;;;;6159034;23;20334;-82
2021/01/08 03:21:05;;;;;;;14.00;7.37;;;0.80;53.00;;;;;;6159294;23;20719;-82
2021/01/08 03:23:30;;;;;;;14.87;7.67;;;0.80;53.70;;;;;;6159453;23;20333;-82
2021/01/08 03:25:56;;;;;;;20.83;8.40;;;0.80;53.40;;;;;;6159294;23;20059;-82
2021/01/08 03:28:22;;;;;;;15.97;7.70;;;0.80;53.50;;;;;;6184361;23;20073;-81
2021/01/08 03:30:48;;;;;;;16.17;7.57;;;0.90;53.60;;;;;;6158307;23;20127;-81
2021/01/08 03:33:14;;;;;;;13.27;7.00;;;1.10;54.10;;;;;;6158698;23;20272;-82
2021/01/08 03:35:40;;;;;;;23.10;8.70;;;1.20;53.60;;;;;;6185533;23;20243;-82
2021/01/08 03:38:06;;;;;;;16.47;8.07;;;1.00;52.70;;;;;;6158222;23;20471;-82
2021/01/08 03:40:33;;;;;;;19.90;8.50;;;1.00;53.30;;;;;;6158386;23;20032;-82
2021/01/08 03:42:59;;;;;;;13.90;7.33;;;0.80;52.80;;;;;;6159289;23;20021;-82
2021/01/08 03:45:26;;;;;;;13.40;6.40;;;0.70;52.90;;;;;;6158598;23;20232;-82
2021/01/08 03:47:51;;;;;;;13.77;7.00;;;0.60;53.30;;;;;;6159516;23;20704;-82
2021/01/08 03:50:17;;;;;;;15.37;7.93;;;0.80;53.70;;;;;;6159432;23;20248;-82
2021/01/08 03:52:43;;;;;;;14.97;7.80;;;0.90;53.60;;;;;;6182576;23;20070;-82
2021/01/08 03:55:09;;;;;;;14.93;7.83;;;0.90;53.50;;;;;;6180771;23;20004;-82
2021/01/08 03:57:35;;;;;;;14.13;6.90;;;1.10;54.00;;;;;;6158780;23;20009;-82
2021/01/08 04:00:00;;;;;;;17.77;7.70;;;1.20;53.70;;;;;;6158724;23;20279;-82
2021/01/08 04:02:26;;;;;;;16.93;7.57;;;1.10;52.80;;;;;;6159085;23;20067;-82
2021/01/08 04:04:52;;;;;;;14.27;7.13;;;0.90;52.90;;;;;;6158399;23;20051;-82
2021/01/08 04:07:18;;;;;;;12.03;6.27;;;0.90;53.30;;;;;;6159437;23;20011;-81
2021/01/08 04:09:43;;;;;;;16.30;6.73;;;0.80;53.10;;;;;;6159095;23;19997;-81
2021/01/08 04:12:09;;;;;;;15.10;7.50;;;0.80;53.10;;;;;;6159020;23;20005;-81
2021/01/08 04:14:35;;;;;;;19.63;6.93;;;0.80;53.50;;;;;;6158355;23;20475;-81
2021/01/08 04:17:00;;;;;;;15.20;7.20;;;0.70;53.00;;;;;;6159578;23;20020;-81
2021/01/08 04:19:26;;;;;;;15.23;6.93;;;0.60;53.40;;;;;;6158604;23;20009;-81
2021/01/08 04:21:52;;;;;;;16.97;7.77;;;0.70;53.40;;;;;;6158820;23;20038;-81
2021/01/08 04:24:17;;;;;;;15.60;6.00;;;0.70;53.30;;;;;;6158321;23;20417;-81
2021/01/08 04:26:43;;;;;;;12.60;6.30;;;0.80;53.70;;;;;;6159072;23;20425;-81
2021/01/08 04:29:09;;;;;;;11.27;6.10;;;1.00;53.50;;;;;;6184593;23;20028;-81
2021/01/08 04:31:34;;;;;;;13.17;6.30;;;1.30;54.30;;;;;;6157902;23;20005;-81
2021/01/08 04:34:00;;;;;;;19.80;7.00;;;1.50;53.50;;;;;;6158954;23;20013;-81
2021/01/08 04:36:26;;;;;;;13.87;6.20;;;1.50;53.40;;;;;;6159156;23;20340;-81
2021/01/08 04:38:52;;;;;;;10.67;5.13;;;1.40;52.70;;;;;;6158372;23;20005;-81
2021/01/08 04:41:17;;;;;;;10.83;5.20;;;1.20;52.50;;;;;;6158502;23;20013;-81
2021/01/08 04:43:43;;;;;;;12.57;5.60;;;1.20;52.40;;;;;;6158487;23;20021;-81
2021/01/08 04:46:18;;;;;;;11.53;6.33;;;1.10;52.00;;;;;;6185488;23;20389;-81
2021/01/08 04:48:44;;;;;;;16.10;5.87;;;1.00;52.20;;;;;;6159590;23;20239;-81
2021/01/08 04:51:12;;;;;;;14.70;5.97;;;1.00;52.30;;;;;;6160940;23;20275;-81
2021/01/08 04:53:38;;;;;;;12.47;5.70;;;0.90;51.90;;;;;;6160997;23;20092;-81
2021/01/08 04:56:07;;;;;;;12.57;5.80;;;0.80;51.60;;;;;;6160822;23;20240;-81
2021/01/08 04:58:33;;;;;;;11.93;5.40;;;0.60;51.90;;;;;;6160359;23;20232;-81
2021/01/08 05:01:02;;;;;;;12.10;5.87;;;0.80;52.60;;;;;;6160581;23;20753;-81
2021/01/08 05:03:29;;;;;;;11.83;6.20;;;0.60;51.50;;;;;;6160616;23;20232;-81
2021/01/08 05:05:56;;;;;;;17.07;6.10;;;0.50;51.50;;;;;;6159369;23;20384;-81
2021/01/08 05:08:22;;;;;;;12.33;5.70;;;0.30;51.70;;;;;;6160503;23;20247;-81
2021/01/08 05:10:48;;;;;;;13.67;6.50;;;0.20;51.80;;;;;;6159908;23;20310;-81
2021/01/08 05:13:14;;;;;;;15.73;6.63;;;0.20;52.20;;;;;;6187020;23;20263;-81
2021/01/08 05:15:40;;;;;;;14.10;6.07;;;0.40;52.30;;;;;;6159735;23;20248;-82
2021/01/08 05:18:07;;;;;;;12.30;5.97;;;0.40;52.20;;;;;;6160917;23;20012;-82
2021/01/08 05:20:32;;;;;;;10.87;5.30;;;0.40;51.90;;;;;;6160034;23;20567;-81
2021/01/08 05:23:00;;;;;;;10.63;5.00;;;0.30;51.90;;;;;;6187118;23;20228;-81
2021/01/08 05:25:26;;;;;;;10.40;5.23;;;0.30;52.00;;;;;;6160081;23;20039;-81
2021/01/08 05:27:51;;;;;;;17.43;5.83;;;0.50;52.40;;;;;;6186686;23;20228;-81
2021/01/08 05:30:28;;;;;;;14.53;5.70;;;0.60;51.90;;;;;;6159179;23;20009;-82
2021/01/08 05:33:04;;;;;;;12.27;4.60;;;0.50;51.60;;;;;;6160263;23;20088;-82
2021/01/08 05:35:32;;;;;;;10.90;5.63;;;0.40;51.60;;;;;;6160475;23;20715;-83
2021/01/08 05:38:07;;;;;;;12.03;5.93;;;0.40;51.90;;;;;;6187379;23;20236;-82
2021/01/08 05:40:33;;;;;;;10.13;4.83;;;0.30;51.60;;;;;;6160018;23;20244;-82
2021/01/08 05:43:01;;;;;;;14.07;5.80;;;0.40;51.90;;;;;;6159705;23;20248;-83
2021/01/08 05:45:27;;;;;;;10.73;5.03;;;0.40;52.00;;;;;;6160060;23;20268;-83
2021/01/08 05:47:56;;;;;;;9.43;5.30;;;0.50;52.00;;;;;;6161080;23;20225;-83
2021/01/08 05:50:24;;;;;;;17.10;5.70;;;0.60;52.20;;;;;;6159257;23;20263;-82
2021/01/08 05:53:03;;;;;;;15.13;5.63;;;0.70;52.00;;;;;;6160038;23;20232;-82
2021/01/08 05:55:33;;;;;;;10.87;5.50;;;0.60;51.50;;;;;;6158842;23;20564;-82
2021/01/08 05:57:59;;;;;;;8.77;4.80;;;0.60;52.00;;;;;;6184503;23;20255;-82
2021/01/08 06:00:24;;;;;;;14.97;6.87;;;0.70;52.50;;;;;;6158295;23;20232;-82
2021/01/08 06:02:53;;;;;;;12.43;6.13;;;0.90;52.40;;;;;;6158369;23;20005;-83
2021/01/08 06:05:20;;;;;;;23.77;5.40;;;0.90;51.90;;;;;;6186248;23;20005;-82
2021/01/08 06:07:50;;;;;;;14.50;5.27;;;0.80;51.60;;;;;;6160056;23;20339;-82
2021/01/08 06:10:19;;;;;;;10.20;5.23;;;0.80;51.70;;;;;;6158779;23;20327;-82
2021/01/08 06:12:47;;;;;;;10.37;5.80;;;0.80;51.50;;;;;;6159767;23;20320;-82
2021/01/08 06:15:15;;;;;;;11.50;5.20;;;0.70;51.40;;;;;;6186442;23;20228;-82
2021/01/08 06:17:46;;;;;;;20.53;5.80;;;0.60;51.50;;;;;;6159786;23;20279;-83
2021/01/08 06:20:13;;;;;;;12.37;5.73;;;0.60;51.60;;;;;;6159670;23;20240;-83
2021/01/08 06:22:40;;;;;;;16.70;5.87;;;0.60;51.50;;;;;;6159809;23;20367;-83
2021/01/08 06:25:08;;;;;;;13.20;5.57;;;0.60;51.80;;;;;;6186262;23;20221;-83
2021/01/08 06:27:35;;;;;;;9.53;5.33;;;0.70;51.80;;;;;;6186685;23;20220;-83
2021/01/08 06:30:07;;;;;;;10.40;5.80;;;0.60;51.50;;;;;;6187335;23;20219;-83
2021/01/08 06:32:34;;;;;;;9.80;5.18;;;0.70;52.30;;;;;;6160172;23;20235;-82
2021/01/08 06:35:09;;;;;;;20.13;6.17;;;0.70;51.70;;;;;;6160290;23;20487;-82
2021/01/08 06:37:39;;;;;;;13.83;7.10;;;0.60;51.40;;;;;;6187101;23;20240;-82
2021/01/08 06:40:06;;;;;;;14.13;6.57;;;0.60;52.00;;;;;;6161417;23;20680;-82
2021/01/08 06:42:32;;;;;;;15.83;6.17;;;0.50;51.50;;;;;;6160153;23;20712;-82
2021/01/08 06:44:59;;;;;;;12.27;5.67;;;0.50;51.60;;;;;;6160521;23;20228;-82
2021/01/08 06:47:29;;;;;;;11.23;6.10;;;0.40;51.60;;;;;;6186742;23;20068;-82
2021/01/08 06:49:57;;;;;;;12.30;5.73;;;0.50;51.90;;;;;;6161490;23;20233;-82
2021/01/08 06:52:24;;;;;;;17.97;5.57;;;0.50;51.70;;;;;;6160467;23;20271;-82
2021/01/08 06:54:56;;;;;;;12.07;5.43;;;0.60;52.20;;;;;;6159776;23;20240;-82
2021/01/08 06:57:22;;;;;;;12.83;6.80;;;0.60;51.80;;;;;;6160223;23;20715;-82
2021/01/08 06:59:58;;;;;;;19.03;8.30;;;0.60;51.70;;;;;;6159540;23;20239;-82
2021/01/08 07:02:25;;;;;;;16.07;6.97;;;0.60;52.10;;;;;;6186283;23;20579;-82
2021/01/08 07:04:52;;;;;;;27.43;9.93;;;1.00;53.40;;;;;;6160706;23;20914;-82
2021/01/08 07:07:25;;;;;;;22.80;10.87;;;1.10;53.10;;;;;;6160019;23;20236;-82
2021/01/08 07:09:54;;;;;;;16.47;6.40;;;1.10;53.00;;;;;;6160409;23;20240;-82
2021/01/08 07:12:24;;;;;;;16.00;6.23;;;1.10;52.80;;;;;;6186505;23;20299;-82
2021/01/08 07:14:50;;;;;;;11.70;5.67;;;0.90;52.00;;;;;;6159574;23;20243;-82
2021/01/08 07:17:16;;;;;;;17.03;5.53;;;0.80;52.10;;;;;;6160227;23;20267;-82
2021/01/08 07:19:45;;;;;;;16.70;6.07;;;0.70;52.10;;;;;;6160625;23;20244;-82
2021/01/08 07:22:20;;;;;;;11.67;5.90;;;0.70;51.80;;;;;;6160343;23;20318;-82
2021/01/08 07:24:50;;;;;;;17.50;5.03;;;0.50;51.60;;;;;;6159044;23;20315;-82
2021/01/08 07:27:21;;;;;;;19.27;5.33;;;0.40;51.80;;;;;;6160355;23;20270;-82
2021/01/08 07:29:58;;;;;;;15.10;5.60;;;0.30;51.70;;;;;;6159229;23;20332;-81
2021/01/08 07:32:40;;;;;;;12.00;5.23;;;0.30;51.70;;;;;;6158259;23;20251;-81
2021/01/08 07:35:25;;;;;;;21.27;6.60;;;0.20;51.60;;;;;;6157682;23;20712;-81
2021/01/08 07:37:56;;;;;;;12.63;7.70;;;0.10;52.10;;;;;;6157780;23;20019;-81
2021/01/08 07:40:23;;;;;;;20.67;8.07;;;0.10;52.20;;;;;;6157496;23;20240;-81
2021/01/08 07:43:08;;;;;;;18.70;5.97;;;0.00;52.10;;;;;;6159520;23;20319;-82
2021/01/08 07:45:53;;;;;;;16.37;6.17;;;0.00;52.30;;;;;;6160306;23;20305;-82
2021/01/08 07:48:35;;;;;;;16.37;6.00;;;-0.10;52.80;;;;;;6185592;23;20621;-83
2021/01/08 07:51:03;;;;;;;30.52;7.60;;;0.00;52.80;;;;;;6157768;23;20240;-83
2021/01/08 07:53:40;;;;;;;15.60;5.60;;;0.10;52.90;;;;;;6152806;23;20009;-83
2021/01/08 07:56:07;;;;;;;11.67;5.97;;;0.20;53.00;;;;;;6158685;23;20318;-83
2021/01/08 07:58:34;;;;;;;17.73;5.57;;;0.50;53.20;;;;;;6157529;23;20687;-83
2021/01/08 08:01:02;;;;;;;17.40;5.57;;;0.50;52.60;;;;;;6158531;23;20252;-83
2021/01/08 08:03:28;;;;;;;13.33;4.93;;;0.40;52.20;;;;;;6185687;23;20248;-82
2021/01/08 08:05:54;;;;;;;15.73;5.33;;;0.30;52.30;;;;;;6186293;23;20653;-83
2021/01/08 08:08:20;;;;;;;13.77;5.20;;;0.30;52.10;;;;;;6184063;23;20001;-83
2021/01/08 08:10:46;;;;;;;9.53;4.67;;;0.40;52.00;;;;;;6157579;23;20710;-83
2021/01/08 08:13:13;;;;;;;9.37;5.07;;;0.30;51.80;;;;;;6158624;23;20240;-83
2021/01/08 08:15:49;;;;;;;15.60;6.07;;;0.40;52.00;;;;;;6157712;23;20242;-83
2021/01/08 08:18:15;;;;;;;12.77;4.80;;;0.60;51.80;;;;;;6157931;23;20244;-83
2021/01/08 08:20:40;;;;;;;15.20;5.57;;;0.50;51.40;;;;;;6158547;23;20243;-83
2021/01/08 08:23:18;;;;;;;17.20;5.27;;;0.60;51.70;;;;;;6184156;23;20028;-83
2021/01/08 08:25:45;;;;;;;16.07;5.47;;;0.60;51.60;;;;;;6158132;23;20641;-83
2021/01/08 08:28:11;;;;;;;23.03;5.90;;;0.70;51.80;;;;;;6157710;23;20268;-83
2021/01/08 08:30:37;;;;;;;28.67;7.67;;;0.80;52.00;;;;;;6157688;23;20224;-83
2021/01/08 08:33:06;;;;;;;18.50;7.23;;;0.90;52.10;;;;;;6157314;23;20241;-83
2021/01/08 08:35:35;;;;;;;18.67;6.73;;;1.00;52.00;;;;;;6156763;23;20232;-83
2021/01/08 08:38:01;;;;;;;14.83;5.80;;;1.10;52.50;;;;;;6156508;23;20235;-83
2021/01/08 08:40:29;;;;;;;13.63;5.73;;;1.20;51.60;;;;;;6157035;23;20232;-83
2021/01/08 08:42:59;;;;;;;16.07;5.60;;;0.90;51.00;;;;;;6156490;23;20017;-83
2021/01/08 08:45:28;;;;;;;17.47;6.70;;;0.80;50.90;;;;;;6157042;23;20237;-83
2021/01/08 08:47:56;;;;;;;15.47;6.60;;;0.70;51.10;;;;;;6156851;23;20696;-83
2021/01/08 08:50:23;;;;;;;10.67;4.83;;;0.90;51.50;;;;;;6154916;23;20240;-84
2021/01/08 08:52:49;;;;;;;10.83;4.93;;;0.80;50.70;;;;;;6154623;23;20279;-84
2021/01/08 08:55:32;;;;;;;17.37;5.70;;;0.70;50.40;;;;;;6157083;23;20271;-84
2021/01/08 08:58:03;;;;;;;17.17;5.53;;;0.70;50.60;;;;;;6183046;23;20240;-84
2021/01/08 09:00:29;;;;;;;11.07;4.80;;;0.70;50.70;;;;;;6183926;23;20005;-84
2021/01/08 09:02:55;;;;;;;12.10;5.33;;;0.60;50.40;;;;;;6159011;23;20305;-84
2021/01/08 09:05:21;;;;;;;12.83;5.00;;;0.60;50.40;;;;;;6158976;23;20707;-84
2021/01/08 09:08:01;;;;;;;14.70;5.53;;;0.70;50.60;;;;;;6159556;23;20488;-84
2021/01/08 09:10:33;;;;;;;18.40;5.57;;;0.80;50.40;;;;;;6157038;23;20009;-84
2021/01/08 09:12:59;;;;;;;19.02;5.00;;;0.80;50.20;;;;;;6183428;23;20236;-84
2021/01/08 09:15:34;;;;;;;28.17;6.53;;;0.80;50.20;;;;;;6157317;23;20005;-84
2021/01/08 09:18:07;;;;;;;11.87;5.20;;;0.80;50.10;;;;;;6183199;23;20476;-84
2021/01/08 09:20:36;;;;;;;20.87;5.40;;;0.80;50.20;;;;;;6182669;23;20252;-84
2021/01/08 09:23:02;;;;;;;19.93;5.03;;;0.80;49.90;;;;;;6182886;23;20236;-84
2021/01/08 09:25:28;;;;;;;9.83;5.47;;;0.70;50.00;;;;;;6157386;23;20233;-84
2021/01/08 09:27:54;;;;;;;17.40;5.40;;;0.80;50.40;;;;;;6156159;23;20240;-84
2021/01/08 09:30:20;;;;;;;13.00;5.90;;;1.10;51.10;;;;;;6157381;23;20258;-84
2021/01/08 09:32:46;;;;;;;15.80;6.63;;;1.40;51.10;;;;;;6158185;23;20012;-84
2021/01/08 09:35:12;;;;;;;12.10;6.03;;;1.50;50.70;;;;;;6157610;23;20028;-84
2021/01/08 09:37:50;;;;;;;11.93;5.67;;;1.70;50.80;;;;;;6158866;23;20009;-84
2021/01/08 09:40:18;;;;;;;18.13;7.00;;;1.90;50.60;;;;;;6184934;23;20008;-84
2021/01/08 09:42:44;;;;;;;15.23;5.87;;;2.30;50.80;;;;;;6159253;23;20145;-84
2021/01/08 09:45:21;;;;;;;17.50;7.03;;;2.60;50.10;;;;;;6159035;23;20033;-84
2021/01/08 09:47:47;;;;;;;14.83;5.43;;;3.00;49.80;;;;;;6157243;23;20005;-84
2021/01/08 09:50:23;;;;;;;14.03;5.57;;;3.30;49.20;;;;;;6157777;23;20321;-84
2021/01/08 09:52:49;;;;;;;18.60;6.13;;;3.60;48.70;;;;;;6156894;23;20444;-84
2021/01/08 09:55:29;;;;;;;21.57;6.40;;;3.80;48.40;;;;;;6182648;23;20457;-84
2021/01/08 09:57:58;;;;;;;13.73;5.77;;;3.90;47.60;;;;;;6163837;23;20016;-83
2021/01/08 10:00:35;;;;;;;15.57;6.03;;;3.80;47.40;;;;;;6187067;23;20302;-83
2021/01/08 10:03:02;;;;;;;13.33;6.03;;;3.70;47.10;;;;;;6161794;23;20163;-83
2021/01/08 10:05:36;;;;;;;12.03;5.70;;;3.70;47.30;;;;;;6161677;23;20001;-83
2021/01/08 10:08:04;;;;;;;17.53;5.90;;;3.90;47.30;;;;;;6160178;23;20503;-83
2021/01/08 10:10:29;;;;;;;19.90;5.90;;;4.00;46.90;;;;;;6159999;23;20005;-83
2021/01/08 10:12:58;;;;;;;18.50;5.63;;;4.20;46.60;;;;;;6189422;23;20036;-83
2021/01/08 10:16:09;;;;;;;14.90;5.60;;;4.40;46.20;;;;;;6187806;23;20005;-83
2021/01/08 10:18:37;;;;;;;14.20;5.50;;;4.60;45.60;;;;;;6068244;23;20039;-83
2021/01/08 10:21:04;;;;;;;17.57;6.10;;;4.80;45.40;;;;;;6148988;23;20009;-83
2021/01/08 10:23:29;;;;;;;18.10;5.60;;;4.80;44.80;;;;;;6159434;23;20005;-83
2021/01/08 10:26:15;;;;;;;16.57;5.60;;;4.90;44.60;;;;;;6160767;23;20434;-83
2021/01/08 10:28:54;;;;;;;18.70;5.97;;;5.10;44.10;;;;;;6185575;23;20005;-83
2021/01/08 10:31:21;;;;;;;13.43;5.53;;;5.10;44.00;;;;;;6188538;23;20071;-83
2021/01/08 10:33:47;;;;;;;11.63;5.43;;;5.00;44.20;;;;;;6161126;23;20432;-83
2021/01/08 10:36:14;;;;;;;13.17;6.30;;;5.20;44.20;;;;;;6162506;23;20028;-83
2021/01/08 10:38:40;;;;;;;15.23;5.63;;;5.30;43.90;;;;;;6189740;23;20028;-83
2021/01/08 10:41:06;;;;;;;26.57;8.00;;;5.10;43.80;;;;;;6161991;23;20036;-83
2021/01/08 10:43:35;;;;;;;22.20;6.73;;;4.90;43.90;;;;;;6164654;23;20020;-83
2021/01/08 10:46:04;;;;;;;21.10;6.63;;;4.90;44.10;;;;;;6162913;23;20005;-83
2021/01/08 10:48:30;;;;;;;15.33;5.83;;;4.80;43.90;;;;;;6161403;23;20005;-83
2021/01/08 10:50:56;;;;;;;13.80;5.87;;;4.70;44.00;;;;;;6159830;23;20005;-83
2021/01/08 10:53:23;;;;;;;12.97;5.07;;;4.70;44.10;;;;;;6160295;23;20577;-83
2021/01/08 10:55:48;;;;;;;9.77;4.90;;;4.70;44.20;;;;;;6159621;23;20032;-83
2021/01/08 10:58:15;;;;;;;19.07;5.37;;;4.80;44.30;;;;;;6161669;23;20009;-83
2021/01/08 11:00:48;;;;;;;16.97;5.10;;;5.10;44.30;;;;;;6160226;23;20009;-83
2021/01/08 11:03:14;;;;;;;14.43;5.15;;;5.30;43.60;;;;;;6161724;23;20084;-84
2021/01/08 11:05:43;;;;;;;14.97;5.80;;;5.50;43.50;;;;;;6185833;23;20008;-84
2021/01/08 11:08:10;;;;;;;9.47;5.00;;;5.70;43.20;;;;;;6159626;23;20009;-84
2021/01/08 11:10:37;;;;;;;8.40;3.90;;;5.60;42.70;;;;;;6158363;23;20041;-82
2021/01/08 11:13:03;;;;;;;10.37;4.63;;;5.50;42.60;;;;;;6158329;23;20005;-82
2021/01/08 11:15:29;;;;;;;11.40;4.87;;;5.30;42.60;;;;;;6157828;23;20001;-83
2021/01/08 11:17:55;;;;;;;11.17;4.20;;;5.20;42.50;;;;;;6155928;23;20421;-82
2021/01/08 11:20:21;;;;;;;15.90;3.80;;;5.00;42.50;;;;;;6159601;23;20005;-82
2021/01/08 11:22:46;;;;;;;8.17;3.57;;;4.90;42.50;;;;;;6160471;23;20013;-82
2021/01/08 11:25:14;;;;;;;14.43;4.27;;;4.80;42.20;;;;;;6162922;23;20056;-82
2021/01/08 11:27:41;;;;;;;7.13;3.90;;;4.70;42.30;;;;;;6160665;23;20072;-82
2021/01/08 11:30:07;;;;;;;10.40;4.37;;;4.70;42.20;;;;;;6162909;23;20037;-82
2021/01/08 11:32:33;;;;;;;11.93;4.33;;;4.70;42.20;;;;;;6165185;23;20009;-82
2021/01/08 11:34:59;;;;;;;12.23;4.80;;;4.60;42.00;;;;;;6161769;23;20013;-82
2021/01/08 11:37:25;;;;;;;15.37;4.50;;;4.60;42.20;;;;;;6162203;23;20222;-83
2021/01/08 11:39:50;;;;;;;7.33;3.90;;;4.70;42.30;;;;;;6160673;23;20005;-82
2021/01/08 11:42:17;;;;;;;8.77;4.40;;;4.70;42.20;;;;;;6163311;23;20356;-82
2021/01/08 11:44:43;;;;;;;19.80;6.70;;;4.60;42.00;;;;;;6161364;23;20021;-82
2021/01/08 11:47:10;;;;;;;6.53;4.17;;;4.50;42.00;;;;;;6162122;23;20093;-82
2021/01/08 11:49:36;;;;;;;12.93;4.53;;;4.50;42.20;;;;;;6161804;23;20067;-82
2021/01/08 11:52:02;;;;;;;9.60;4.00;;;4.40;42.20;;;;;;6188662;23;20013;-82
2021/01/08 11:54:28;;;;;;;12.17;4.07;;;4.40;42.10;;;;;;6161430;23;20008;-82
2021/01/08 11:56:54;;;;;;;16.73;4.83;;;4.40;42.30;;;;;;6159681;23;20433;-82
2021/01/08 11:59:20;;;;;;;13.43;4.43;;;4.50;42.60;;;;;;6185465;23;20072;-82
2021/01/08 12:01:45;;;;;;;14.73;4.20;;;4.50;42.50;;;;;;6187203;23;20032;-82
2021/01/08 12:04:11;;;;;;;17.83;4.83;;;4.40;42.10;;;;;;6162604;23;20009;-82
2021/01/08 12:06:38;;;;;;;10.03;4.87;;;4.20;42.10;;;;;;6191215;23;20005;-82
2021/01/08 12:09:07;;;;;;;10.73;5.37;;;4.20;42.30;;;;;;6162972;23;20001;-82
2021/01/08 12:11:33;;;;;;;12.13;4.83;;;4.40;42.80;;;;;;6163256;23;20012;-83
2021/01/08 12:13:59;;;;;;;10.47;4.97;;;4.70;42.60;;;;;;6164428;23;20005;-83
2021/01/08 12:16:33;;;;;;;9.13;4.77;;;4.90;42.40;;;;;;6164915;23;20092;-83
2021/01/08 12:18:59;;;;;;;15.60;4.87;;;5.10;42.30;;;;;;6164590;23;20012;-83
2021/01/08 12:21:28;;;;;;;11.13;4.90;;;5.40;42.60;;;;;;6163062;23;20081;-83
2021/01/08 12:23:55;;;;;;;10.40;3.83;;;5.60;42.40;;;;;;6164305;23;20009;-83
2021/01/08 12:26:21;;;;;;;7.27;4.77;;;5.70;42.20;;;;;;6164615;23;20488;-83
2021/01/08 12:28:49;;;;;;;10.20;4.47;;;5.50;41.80;;;;;;6164085;23;20024;-83
2021/01/08 12:31:21;;;;;;;17.77;5.23;;;5.50;41.80;;;;;;6190745;23;20005;-83
2021/01/08 12:33:47;;;;;;;9.02;5.40;;;5.50;41.70;;;;;;6165527;23;20012;-83
2021/01/08 12:36:12;;;;;;;27.13;5.60;;;5.50;41.80;;;;;;6163926;23;20017;-82
2021/01/08 12:38:38;;;;;;;9.37;4.20;;;5.50;42.00;;;;;;6190248;23;20005;-82
2021/01/08 12:41:04;;;;;;;8.10;4.30;;;5.50;42.30;;;;;;6162144;23;20067;-82
2021/01/08 12:43:30;;;;;;;12.80;4.40;;;5.50;41.80;;;;;;6210575;23;20020;-83
2021/01/08 12:45:56;;;;;;;12.57;6.47;;;5.30;41.70;;;;;;6221076;23;20020;-83
2021/01/08 12:48:21;;;;;;;31.20;12.70;;;5.40;42.20;;;;;;6220390;23;20007;-82
2021/01/08 12:50:47;;;;;;;20.10;9.37;;;5.50;42.10;;;;;;6192387;23;20059;-82
2021/01/08 12:53:13;;;;;;;12.03;5.90;;;5.50;42.00;;;;;;6193444;23;20329;-83